VLK597 UHHH-UHWW
Flight info
| Callsign | VLK597 |
|---|---|
| Flight time | 1h 5m |
| Altitude | 36000 |
| Route | ARDEL4L ARDEL B355 BG/K0778F220 G714 DAGES DAGES2C |
| Aircraft | T154/M-SDFIRY/S |
Departure
| Time | 2026-05-08 08:22 |
|---|---|
| Airport | Khabarovsk Novy Airport (UHHH) |
Arrival
| Time | 2026-05-08 09:27 |
|---|---|
| Airport | Vladivostok International Airport (UHWW) |
| Time | Latitude | Longitude | Altitude | Speed | Heading |
|---|---|---|---|---|---|
| 2026-05-08 08:00 | 48.52472 | 135.17168 | 264 ft | 0 kts | 311° |
| 2026-05-08 08:08 | 48.52466 | 135.17175 | 264 ft | 2 kts | 312° |
| 2026-05-08 08:08 | 48.52456 | 135.17192 | 263 ft | 2 kts | 313° |
| 2026-05-08 08:09 | 48.52445 | 135.17210 | 263 ft | 2 kts | 313° |
| 2026-05-08 08:09 | 48.52430 | 135.17233 | 263 ft | 3 kts | 322° |
| 2026-05-08 08:09 | 48.52406 | 135.17247 | 262 ft | 4 kts | 352° |
| 2026-05-08 08:09 | 48.52375 | 135.17244 | 262 ft | 4 kts | 11° |
| 2026-05-08 08:10 | 48.52349 | 135.17233 | 261 ft | 1 kts | 19° |
| 2026-05-08 08:10 | 48.52359 | 135.17239 | 261 ft | 2 kts | 18° |
| 2026-05-08 08:10 | 48.52374 | 135.17246 | 262 ft | 2 kts | 17° |
| 2026-05-08 08:10 | 48.52389 | 135.17253 | 262 ft | 2 kts | 16° |
| 2026-05-08 08:11 | 48.52404 | 135.17259 | 262 ft | 2 kts | 15° |
| 2026-05-08 08:11 | 48.52414 | 135.17264 | 262 ft | 0 kts | 15° |
| 2026-05-08 08:14 | 48.52425 | 135.17271 | 263 ft | 3 kts | 34° |
| 2026-05-08 08:14 | 48.52454 | 135.17307 | 263 ft | 7 kts | 40° |
| 2026-05-08 08:14 | 48.52495 | 135.17362 | 264 ft | 9 kts | 41° |
| 2026-05-08 08:15 | 48.52548 | 135.17430 | 265 ft | 10 kts | 40° |
| 2026-05-08 08:15 | 48.52607 | 135.17499 | 266 ft | 10 kts | 12° |
| 2026-05-08 08:15 | 48.52684 | 135.17496 | 268 ft | 11 kts | 2° |
| 2026-05-08 08:15 | 48.52759 | 135.17534 | 269 ft | 11 kts | 24° |
| 2026-05-08 08:16 | 48.52822 | 135.17613 | 269 ft | 12 kts | 41° |
| 2026-05-08 08:16 | 48.52893 | 135.17708 | 269 ft | 14 kts | 43° |
| 2026-05-08 08:16 | 48.52889 | 135.17841 | 267 ft | 16 kts | 132° |
| 2026-05-08 08:16 | 48.52806 | 135.17989 | 263 ft | 19 kts | 128° |
| 2026-05-08 08:17 | 48.52774 | 135.18098 | 261 ft | 12 kts | 73° |
| 2026-05-08 08:17 | 48.52832 | 135.18181 | 263 ft | 11 kts | 40° |
| 2026-05-08 08:17 | 48.52896 | 135.18266 | 263 ft | 13 kts | 41° |
| 2026-05-08 08:17 | 48.52971 | 135.18367 | 262 ft | 15 kts | 42° |
| 2026-05-08 08:18 | 48.53025 | 135.18440 | 262 ft | 5 kts | 41° |
| 2026-05-08 08:18 | 48.53059 | 135.18494 | 260 ft | 7 kts | 69° |
| 2026-05-08 08:18 | 48.53035 | 135.18562 | 259 ft | 9 kts | 133° |
| 2026-05-08 08:18 | 48.52983 | 135.18648 | 258 ft | 12 kts | 131° |
| 2026-05-08 08:19 | 48.52927 | 135.18765 | 257 ft | 14 kts | 95° |
| 2026-05-08 08:19 | 48.52948 | 135.18922 | 255 ft | 16 kts | 77° |
| 2026-05-08 08:19 | 48.52976 | 135.19110 | 253 ft | 20 kts | 77° |
| 2026-05-08 08:19 | 48.53003 | 135.19282 | 251 ft | 13 kts | 75° |
| 2026-05-08 08:20 | 48.53008 | 135.19359 | 251 ft | 2 kts | 148° |
| 2026-05-08 08:20 | 48.52986 | 135.19347 | 251 ft | 4 kts | 221° |
| 2026-05-08 08:20 | 48.52985 | 135.19345 | 251 ft | 0 kts | 222° |
| 2026-05-08 08:21 | 48.52985 | 135.19344 | 251 ft | 0 kts | 222° |
| 2026-05-08 08:21 | 48.52790 | 135.19078 | 251 ft | 86 kts | 222° |
| 2026-05-08 08:21 | 48.52110 | 135.18158 | 254 ft | 170 kts | 222° |
| 2026-05-08 08:21 | 48.51142 | 135.16832 | 707 ft | 200 kts | 225° |
| 2026-05-08 08:22 | 48.50008 | 135.15240 | 992 ft | 248 kts | 224° |
| 2026-05-08 08:22 | 48.48732 | 135.13527 | 1790 ft | 239 kts | 224° |
| 2026-05-08 08:22 | 48.47476 | 135.11826 | 2108 ft | 253 kts | 224° |
| 2026-05-08 08:22 | 48.46126 | 135.10031 | 2587 ft | 262 kts | 217° |
| 2026-05-08 08:23 | 48.44466 | 135.08925 | 3057 ft | 270 kts | 187° |
| 2026-05-08 08:23 | 48.42589 | 135.09137 | 3610 ft | 272 kts | 158° |
| 2026-05-08 08:23 | 48.40977 | 135.10524 | 4234 ft | 265 kts | 141° |
| 2026-05-08 08:23 | 48.39550 | 135.12221 | 4849 ft | 260 kts | 139° |
| 2026-05-08 08:24 | 48.38175 | 135.13919 | 5374 ft | 258 kts | 139° |
| 2026-05-08 08:24 | 48.36773 | 135.15626 | 5869 ft | 257 kts | 144° |
| 2026-05-08 08:24 | 48.35161 | 135.16763 | 6317 ft | 263 kts | 162° |
| 2026-05-08 08:24 | 48.33373 | 135.17526 | 6904 ft | 275 kts | 165° |
| 2026-05-08 08:25 | 48.31469 | 135.18018 | 7612 ft | 283 kts | 175° |
| 2026-05-08 08:25 | 48.29498 | 135.17996 | 8410 ft | 289 kts | 185° |
| 2026-05-08 08:25 | 48.27494 | 135.17636 | 9236 ft | 294 kts | 188° |
| 2026-05-08 08:25 | 48.25425 | 135.17239 | 10072 ft | 311 kts | 186° |
| 2026-05-08 08:26 | 48.23206 | 135.16919 | 11143 ft | 327 kts | 185° |
| 2026-05-08 08:26 | 48.20965 | 135.16661 | 12134 ft | 327 kts | 184° |
| 2026-05-08 08:26 | 48.18697 | 135.16402 | 12903 ft | 333 kts | 185° |
| 2026-05-08 08:26 | 48.16385 | 135.16119 | 13660 ft | 337 kts | 185° |
| 2026-05-08 08:27 | 48.14033 | 135.15817 | 14489 ft | 342 kts | 185° |
| 2026-05-08 08:27 | 48.11677 | 135.15511 | 15337 ft | 344 kts | 185° |
| 2026-05-08 08:27 | 48.09268 | 135.15201 | 16152 ft | 347 kts | 185° |
| 2026-05-08 08:27 | 48.06862 | 135.14893 | 16974 ft | 350 kts | 186° |
| 2026-05-08 08:28 | 48.04455 | 135.14587 | 17779 ft | 353 kts | 186° |
| 2026-05-08 08:28 | 48.01974 | 135.14272 | 18542 ft | 357 kts | 186° |
| 2026-05-08 08:28 | 47.99528 | 135.13960 | 19331 ft | 359 kts | 186° |
| 2026-05-08 08:28 | 47.97021 | 135.13641 | 20079 ft | 363 kts | 186° |
| 2026-05-08 08:29 | 47.94490 | 135.13321 | 20769 ft | 368 kts | 186° |
| 2026-05-08 08:29 | 47.91951 | 135.12999 | 21552 ft | 370 kts | 186° |
| 2026-05-08 08:29 | 47.89373 | 135.12674 | 22254 ft | 373 kts | 186° |
| 2026-05-08 08:29 | 47.86774 | 135.12349 | 22855 ft | 379 kts | 186° |
| 2026-05-08 08:30 | 47.84129 | 135.12022 | 23560 ft | 382 kts | 186° |
| 2026-05-08 08:30 | 47.81493 | 135.11699 | 24195 ft | 385 kts | 186° |
| 2026-05-08 08:30 | 47.76147 | 135.11044 | 25518 ft | 390 kts | 187° |
| 2026-05-08 08:31 | 47.73423 | 135.10704 | 26147 ft | 393 kts | 187° |
| 2026-05-08 08:31 | 47.70734 | 135.10367 | 26702 ft | 396 kts | 186° |
| 2026-05-08 08:31 | 47.67934 | 135.10013 | 27201 ft | 401 kts | 186° |
| 2026-05-08 08:31 | 47.65156 | 135.09666 | 27809 ft | 403 kts | 186° |
| 2026-05-08 08:32 | 47.62371 | 135.09320 | 28331 ft | 406 kts | 186° |
| 2026-05-08 08:32 | 47.59560 | 135.08972 | 28863 ft | 409 kts | 186° |
| 2026-05-08 08:32 | 47.56715 | 135.08621 | 29452 ft | 410 kts | 186° |
| 2026-05-08 08:32 | 47.53888 | 135.08272 | 29879 ft | 415 kts | 186° |
| 2026-05-08 08:33 | 47.50972 | 135.07910 | 30283 ft | 418 kts | 186° |
| 2026-05-08 08:33 | 47.48081 | 135.07552 | 30766 ft | 419 kts | 187° |
| 2026-05-08 08:33 | 47.45176 | 135.07194 | 31150 ft | 420 kts | 186° |
| 2026-05-08 08:33 | 47.42261 | 135.06857 | 31423 ft | 426 kts | 185° |
| 2026-05-08 08:34 | 47.39290 | 135.06616 | 31889 ft | 430 kts | 185° |
| 2026-05-08 08:34 | 47.36290 | 135.06366 | 32355 ft | 433 kts | 186° |
| 2026-05-08 08:34 | 47.33299 | 135.06049 | 32784 ft | 435 kts | 186° |
| 2026-05-08 08:34 | 47.30278 | 135.05716 | 33262 ft | 437 kts | 186° |
| 2026-05-08 08:35 | 47.27277 | 135.05399 | 33699 ft | 439 kts | 186° |
| 2026-05-08 08:35 | 47.24233 | 135.05078 | 34179 ft | 442 kts | 186° |
| 2026-05-08 08:35 | 47.21160 | 135.04750 | 34625 ft | 445 kts | 186° |
| 2026-05-08 08:35 | 47.18041 | 135.04416 | 35039 ft | 450 kts | 186° |
| 2026-05-08 08:36 | 47.14911 | 135.04083 | 35457 ft | 452 kts | 186° |
| 2026-05-08 08:36 | 47.11782 | 135.03752 | 35852 ft | 455 kts | 186° |
| 2026-05-08 08:36 | 47.08615 | 135.03416 | 36241 ft | 457 kts | 186° |
| 2026-05-08 08:36 | 47.05465 | 135.03084 | 36656 ft | 458 kts | 186° |
| 2026-05-08 08:37 | 47.02295 | 135.02750 | 36949 ft | 461 kts | 186° |
| 2026-05-08 08:37 | 46.99088 | 135.02412 | 37286 ft | 462 kts | 186° |
| 2026-05-08 08:37 | 46.95902 | 135.02078 | 37595 ft | 464 kts | 186° |
| 2026-05-08 08:37 | 46.92677 | 135.01741 | 37796 ft | 467 kts | 186° |
| 2026-05-08 08:38 | 46.89405 | 135.01401 | 38106 ft | 467 kts | 186° |
| 2026-05-08 08:38 | 46.86179 | 135.01070 | 38421 ft | 468 kts | 186° |
| 2026-05-08 08:38 | 46.82954 | 135.00737 | 38590 ft | 472 kts | 186° |
| 2026-05-08 08:38 | 46.79649 | 135.00397 | 38551 ft | 473 kts | 186° |
| 2026-05-08 08:39 | 46.73176 | 134.99734 | 38557 ft | 465 kts | 186° |
| 2026-05-08 08:39 | 46.66774 | 134.99081 | 38555 ft | 459 kts | 186° |
| 2026-05-08 08:40 | 46.60463 | 134.98442 | 38572 ft | 453 kts | 186° |
| 2026-05-08 08:40 | 46.54199 | 134.97812 | 38560 ft | 448 kts | 186° |
| 2026-05-08 08:41 | 46.48018 | 134.97195 | 38568 ft | 444 kts | 186° |
| 2026-05-08 08:41 | 46.41898 | 134.96590 | 38558 ft | 439 kts | 186° |
| 2026-05-08 08:42 | 46.35866 | 134.95999 | 38581 ft | 436 kts | 186° |
| 2026-05-08 08:42 | 46.29814 | 134.95534 | 38561 ft | 433 kts | 185° |
| 2026-05-08 08:43 | 46.23872 | 134.94977 | 38582 ft | 428 kts | 188° |
| 2026-05-08 08:43 | 46.18001 | 134.93982 | 38571 ft | 424 kts | 189° |
| 2026-05-08 08:44 | 46.12138 | 134.93005 | 38584 ft | 422 kts | 189° |
| 2026-05-08 08:44 | 46.06357 | 134.92107 | 38560 ft | 420 kts | 188° |
| 2026-05-08 08:45 | 46.00576 | 134.91252 | 38546 ft | 416 kts | 188° |
| 2026-05-08 08:45 | 45.94849 | 134.90442 | 38566 ft | 413 kts | 188° |
| 2026-05-08 08:46 | 45.89165 | 134.89665 | 38568 ft | 410 kts | 188° |
| 2026-05-08 08:46 | 45.83589 | 134.88344 | 38476 ft | 403 kts | 206° |
| 2026-05-08 08:47 | 45.81250 | 134.86217 | 38551 ft | 394 kts | 224° |
| 2026-05-08 08:47 | 45.79544 | 134.83194 | 38592 ft | 390 kts | 239° |
| 2026-05-08 08:47 | 45.76181 | 134.77269 | 38502 ft | 387 kts | 214° |
| 2026-05-08 08:48 | 45.73880 | 134.75365 | 38623 ft | 383 kts | 210° |
| 2026-05-08 08:48 | 45.71545 | 134.73528 | 38541 ft | 383 kts | 212° |
| 2026-05-08 08:48 | 45.66966 | 134.69775 | 38561 ft | 380 kts | 210° |
| 2026-05-08 08:49 | 45.62322 | 134.66191 | 38547 ft | 377 kts | 210° |
| 2026-05-08 08:49 | 45.57743 | 134.62657 | 38539 ft | 375 kts | 210° |
| 2026-05-08 08:50 | 45.53169 | 134.59143 | 38547 ft | 373 kts | 210° |
| 2026-05-08 08:50 | 45.48628 | 134.55661 | 38564 ft | 370 kts | 210° |
| 2026-05-08 08:51 | 45.44107 | 134.52202 | 38520 ft | 367 kts | 210° |
| 2026-05-08 08:51 | 45.39624 | 134.48776 | 38526 ft | 364 kts | 210° |
| 2026-05-08 08:52 | 45.35197 | 134.45401 | 38516 ft | 362 kts | 210° |
| 2026-05-08 08:52 | 45.30690 | 134.41968 | 38621 ft | 375 kts | 210° |
| 2026-05-08 08:53 | 45.25981 | 134.38390 | 38651 ft | 394 kts | 210° |
| 2026-05-08 08:53 | 45.21016 | 134.34627 | 38649 ft | 414 kts | 209° |
| 2026-05-08 08:54 | 45.15806 | 134.30760 | 38634 ft | 435 kts | 208° |
| 2026-05-08 08:54 | 45.10321 | 134.26769 | 38618 ft | 452 kts | 208° |
| 2026-05-08 08:55 | 45.04654 | 134.22626 | 38635 ft | 467 kts | 208° |
| 2026-05-08 08:55 | 44.98824 | 134.18381 | 38604 ft | 480 kts | 208° |
| 2026-05-08 08:56 | 44.92830 | 134.14023 | 38571 ft | 478 kts | 208° |
| 2026-05-08 08:56 | 44.87037 | 134.09828 | 38497 ft | 464 kts | 209° |
| 2026-05-08 08:57 | 44.81818 | 134.04837 | 38523 ft | 449 kts | 219° |
| 2026-05-08 08:57 | 44.76952 | 133.99524 | 38516 ft | 437 kts | 218° |
| 2026-05-08 08:58 | 44.72157 | 133.94411 | 38530 ft | 428 kts | 218° |
| 2026-05-08 08:58 | 44.67492 | 133.89383 | 38539 ft | 419 kts | 218° |
| 2026-05-08 08:59 | 44.62904 | 133.84457 | 38555 ft | 414 kts | 218° |
| 2026-05-08 08:59 | 44.58334 | 133.79553 | 38561 ft | 414 kts | 219° |
| 2026-05-08 09:00 | 44.53783 | 133.74678 | 38583 ft | 416 kts | 218° |
| 2026-05-08 09:00 | 44.49173 | 133.69751 | 38585 ft | 416 kts | 218° |
| 2026-05-08 09:01 | 44.44565 | 133.64833 | 38566 ft | 417 kts | 219° |
| 2026-05-08 09:01 | 44.39955 | 133.59921 | 38576 ft | 417 kts | 218° |
| 2026-05-08 09:02 | 44.35355 | 133.55028 | 38584 ft | 418 kts | 219° |
| 2026-05-08 09:02 | 44.30748 | 133.50136 | 38586 ft | 419 kts | 218° |
| 2026-05-08 09:03 | 44.26115 | 133.45226 | 38580 ft | 419 kts | 219° |
| 2026-05-08 09:03 | 44.23777 | 133.42750 | 38391 ft | 421 kts | 219° |
| 2026-05-08 09:03 | 44.21444 | 133.40283 | 37821 ft | 424 kts | 218° |
| 2026-05-08 09:04 | 44.19100 | 133.37807 | 37394 ft | 425 kts | 218° |
| 2026-05-08 09:04 | 44.16768 | 133.35345 | 36985 ft | 425 kts | 218° |
| 2026-05-08 09:04 | 44.14397 | 133.32848 | 36525 ft | 427 kts | 217° |
| 2026-05-08 09:04 | 44.12027 | 133.30402 | 36089 ft | 429 kts | 217° |
| 2026-05-08 09:05 | 44.09610 | 133.27937 | 35651 ft | 430 kts | 217° |
| 2026-05-08 09:05 | 44.07233 | 133.25507 | 35278 ft | 429 kts | 217° |
| 2026-05-08 09:05 | 44.04819 | 133.23032 | 34907 ft | 428 kts | 217° |
| 2026-05-08 09:05 | 44.02428 | 133.20581 | 34563 ft | 427 kts | 217° |
| 2026-05-08 09:06 | 44.00062 | 133.18133 | 34256 ft | 424 kts | 219° |
| 2026-05-08 09:06 | 43.97950 | 133.15326 | 33925 ft | 421 kts | 230° |
| 2026-05-08 09:06 | 43.96193 | 133.12125 | 33614 ft | 419 kts | 234° |
| 2026-05-08 09:06 | 43.94485 | 133.08846 | 33359 ft | 416 kts | 233° |
| 2026-05-08 09:07 | 43.92750 | 133.05675 | 33128 ft | 414 kts | 232° |
| 2026-05-08 09:07 | 43.91009 | 133.02493 | 32895 ft | 412 kts | 233° |
| 2026-05-08 09:07 | 43.89330 | 132.99358 | 32658 ft | 410 kts | 233° |
| 2026-05-08 09:07 | 43.87625 | 132.96182 | 32425 ft | 411 kts | 233° |
| 2026-05-08 09:08 | 43.85909 | 132.92996 | 32122 ft | 412 kts | 233° |
| 2026-05-08 09:08 | 43.84228 | 132.89859 | 31950 ft | 412 kts | 233° |
| 2026-05-08 09:08 | 43.82449 | 132.86769 | 31616 ft | 411 kts | 225° |
| 2026-05-08 09:08 | 43.80292 | 132.84203 | 30940 ft | 411 kts | 217° |
| 2026-05-08 09:09 | 43.77963 | 132.81889 | 29850 ft | 411 kts | 215° |
| 2026-05-08 09:09 | 43.75623 | 132.79674 | 28765 ft | 409 kts | 216° |
| 2026-05-08 09:09 | 43.73484 | 132.77177 | 27732 ft | 404 kts | 227° |
| 2026-05-08 09:09 | 43.71706 | 132.74225 | 26753 ft | 398 kts | 236° |
| 2026-05-08 09:10 | 43.70254 | 132.71030 | 25795 ft | 392 kts | 242° |
| 2026-05-08 09:10 | 43.68977 | 132.67786 | 24789 ft | 387 kts | 243° |
| 2026-05-08 09:10 | 43.67663 | 132.64575 | 23759 ft | 383 kts | 240° |
| 2026-05-08 09:10 | 43.66266 | 132.61522 | 22757 ft | 378 kts | 238° |
| 2026-05-08 09:11 | 43.64777 | 132.58575 | 21723 ft | 375 kts | 236° |
| 2026-05-08 09:11 | 43.63231 | 132.55704 | 20699 ft | 371 kts | 234° |
| 2026-05-08 09:11 | 43.61689 | 132.52928 | 19680 ft | 367 kts | 234° |
| 2026-05-08 09:11 | 43.60143 | 132.50180 | 18607 ft | 362 kts | 234° |
| 2026-05-08 09:12 | 43.58611 | 132.47467 | 17557 ft | 358 kts | 234° |
| 2026-05-08 09:12 | 43.57098 | 132.44785 | 16566 ft | 354 kts | 235° |
| 2026-05-08 09:12 | 43.55605 | 132.42134 | 15571 ft | 350 kts | 235° |
| 2026-05-08 09:12 | 43.54129 | 132.39519 | 14504 ft | 346 kts | 235° |
| 2026-05-08 09:13 | 43.52668 | 132.36934 | 13575 ft | 342 kts | 235° |
| 2026-05-08 09:13 | 43.51234 | 132.34395 | 12623 ft | 339 kts | 235° |
| 2026-05-08 09:13 | 43.49793 | 132.31842 | 11550 ft | 336 kts | 235° |
| 2026-05-08 09:13 | 43.48371 | 132.29324 | 10503 ft | 333 kts | 236° |
| 2026-05-08 09:14 | 43.46960 | 132.26840 | 9501 ft | 329 kts | 236° |
| 2026-05-08 09:14 | 43.45575 | 132.24408 | 8528 ft | 325 kts | 236° |
| 2026-05-08 09:14 | 43.44187 | 132.21962 | 7553 ft | 321 kts | 236° |
| 2026-05-08 09:14 | 43.42836 | 132.19582 | 6684 ft | 315 kts | 237° |
| 2026-05-08 09:15 | 43.41524 | 132.17281 | 6072 ft | 301 kts | 237° |
| 2026-05-08 09:15 | 43.40272 | 132.15100 | 5960 ft | 280 kts | 237° |
| 2026-05-08 09:15 | 43.39074 | 132.12964 | 5962 ft | 282 kts | 238° |
| 2026-05-08 09:15 | 43.37893 | 132.10785 | 5979 ft | 283 kts | 242° |
| 2026-05-08 09:16 | 43.37142 | 132.08354 | 5723 ft | 281 kts | 265° |
| 2026-05-08 09:16 | 43.36807 | 132.05685 | 5432 ft | 285 kts | 269° |
| 2026-05-08 09:16 | 43.36548 | 132.02983 | 5199 ft | 288 kts | 269° |
| 2026-05-08 09:16 | 43.36341 | 132.00221 | 4995 ft | 288 kts | 272° |
| 2026-05-08 09:17 | 43.36257 | 131.97560 | 4785 ft | 273 kts | 277° |
| 2026-05-08 09:17 | 43.36280 | 131.95020 | 4475 ft | 260 kts | 279° |
| 2026-05-08 09:17 | 43.36324 | 131.92584 | 4103 ft | 253 kts | 278° |
| 2026-05-08 09:17 | 43.36365 | 131.90195 | 3816 ft | 247 kts | 278° |
| 2026-05-08 09:18 | 43.36408 | 131.87830 | 3879 ft | 251 kts | 279° |
| 2026-05-08 09:18 | 43.36455 | 131.85400 | 3906 ft | 256 kts | 278° |
| 2026-05-08 09:18 | 43.36352 | 131.82916 | 3926 ft | 269 kts | 259° |
| 2026-05-08 09:18 | 43.35455 | 131.80631 | 3950 ft | 283 kts | 230° |
| 2026-05-08 09:19 | 43.33815 | 131.79054 | 3981 ft | 290 kts | 201° |
| 2026-05-08 09:19 | 43.31849 | 131.78628 | 3980 ft | 291 kts | 172° |
| 2026-05-08 09:19 | 43.29952 | 131.79428 | 3968 ft | 284 kts | 143° |
| 2026-05-08 09:19 | 43.28562 | 131.81255 | 3983 ft | 273 kts | 114° |
| 2026-05-08 09:20 | 43.27913 | 131.83614 | 3974 ft | 251 kts | 96° |
| 2026-05-08 09:20 | 43.27710 | 131.85863 | 3863 ft | 224 kts | 77° |
| 2026-05-08 09:20 | 43.28143 | 131.87736 | 3837 ft | 191 kts | 50° |
| 2026-05-08 09:20 | 43.28897 | 131.88947 | 3882 ft | 142 kts | 41° |
| 2026-05-08 09:21 | 43.29419 | 131.89854 | 3700 ft | 114 kts | 48° |
| 2026-05-08 09:21 | 43.29886 | 131.90843 | 3348 ft | 122 kts | 52° |
| 2026-05-08 09:22 | 43.32330 | 131.96852 | 2634 ft | 117 kts | 53° |
| 2026-05-08 09:23 | 43.32734 | 131.97838 | 2468 ft | 118 kts | 53° |
| 2026-05-08 09:23 | 43.33140 | 131.98824 | 2337 ft | 120 kts | 53° |
| 2026-05-08 09:23 | 43.33554 | 131.99841 | 2188 ft | 123 kts | 54° |
| 2026-05-08 09:23 | 43.33976 | 132.00882 | 2022 ft | 124 kts | 54° |
| 2026-05-08 09:24 | 43.34392 | 132.01914 | 1853 ft | 123 kts | 54° |
| 2026-05-08 09:24 | 43.34811 | 132.02942 | 1683 ft | 123 kts | 53° |
| 2026-05-08 09:24 | 43.35229 | 132.03966 | 1518 ft | 125 kts | 54° |
| 2026-05-08 09:24 | 43.35651 | 132.05008 | 1345 ft | 125 kts | 54° |
| 2026-05-08 09:25 | 43.36077 | 132.06058 | 1182 ft | 126 kts | 54° |
| 2026-05-08 09:25 | 43.36509 | 132.07120 | 1017 ft | 127 kts | 54° |
| 2026-05-08 09:25 | 43.36941 | 132.08182 | 852 ft | 129 kts | 54° |
| 2026-05-08 09:25 | 43.37377 | 132.09258 | 678 ft | 129 kts | 54° |
| 2026-05-08 09:26 | 43.37822 | 132.10347 | 507 ft | 130 kts | 55° |
| 2026-05-08 09:26 | 43.38157 | 132.11175 | 375 ft | 131 kts | 55° |
| 2026-05-08 09:26 | 43.38275 | 132.11469 | 328 ft | 132 kts | 55° |
| 2026-05-08 09:26 | 43.38584 | 132.12238 | 212 ft | 132 kts | 55° |
| 2026-05-08 09:27 | 43.39037 | 132.13341 | 47 ft | 133 kts | 55° |
| 2026-05-08 09:27 | 43.39433 | 132.14307 | 49 ft | 94 kts | 60° |
| 2026-05-08 09:27 | 43.39672 | 132.14902 | 57 ft | 50 kts | 60° |
| 2026-05-08 09:27 | 43.39804 | 132.15228 | 60 ft | 32 kts | 59° |
| 2026-05-08 09:28 | 43.39910 | 132.15488 | 61 ft | 31 kts | 61° |
| 2026-05-08 09:28 | 43.40016 | 132.15761 | 60 ft | 32 kts | 63° |
| 2026-05-08 09:28 | 43.40131 | 132.16040 | 55 ft | 34 kts | 59° |
| 2026-05-08 09:28 | 43.40251 | 132.16321 | 48 ft | 34 kts | 61° |
| 2026-05-08 09:29 | 43.40370 | 132.16617 | 42 ft | 35 kts | 59° |
| 2026-05-08 09:29 | 43.40424 | 132.16824 | 41 ft | 10 kts | 105° |
| 2026-05-08 09:29 | 43.40367 | 132.16896 | 41 ft | 12 kts | 152° |
| 2026-05-08 09:29 | 43.40285 | 132.16952 | 43 ft | 13 kts | 153° |
| 2026-05-08 09:30 | 43.40194 | 132.17018 | 44 ft | 15 kts | 149° |
| 2026-05-08 09:30 | 43.40095 | 132.17091 | 45 ft | 12 kts | 174° |
| 2026-05-08 09:30 | 43.40049 | 132.17033 | 46 ft | 9 kts | 241° |
| 2026-05-08 09:30 | 43.40013 | 132.16946 | 47 ft | 10 kts | 242° |
| 2026-05-08 09:31 | 43.39978 | 132.16852 | 49 ft | 11 kts | 243° |
| 2026-05-08 09:31 | 43.39943 | 132.16754 | 51 ft | 11 kts | 244° |
| 2026-05-08 09:31 | 43.39909 | 132.16656 | 53 ft | 11 kts | 243° |
| 2026-05-08 09:31 | 43.39872 | 132.16562 | 55 ft | 11 kts | 242° |
| 2026-05-08 09:32 | 43.39821 | 132.16511 | 58 ft | 9 kts | 165° |
| 2026-05-08 09:32 | 43.39787 | 132.16534 | 58 ft | 3 kts | 150° |
| 2026-05-08 09:32 | 43.39766 | 132.16550 | 59 ft | 2 kts | 152° |
| 2026-05-08 09:32 | 43.39759 | 132.16556 | 59 ft | 1 kts | 151° |
| 2026-05-08 09:33 | 43.39756 | 132.16557 | 59 ft | 0 kts | 152° |